createdAt,value
2023-08-13T00:00:01.049Z,12.73
2023-08-13T00:03:04.100Z,12.20
2023-08-13T00:06:07.025Z,12.37
2023-08-13T00:09:09.843Z,6.55
2023-08-13T00:12:13.005Z,9.35
2023-08-13T00:15:15.650Z,7.37
2023-08-13T00:18:19.073Z,8.13
2023-08-13T00:21:21.455Z,9.38
2023-08-13T00:24:24.131Z,7.90
2023-08-13T00:27:26.541Z,8.48
2023-08-13T00:30:29.567Z,9.32
2023-08-13T00:33:31.955Z,8.23
2023-08-13T00:36:34.781Z,7.03
2023-08-13T00:39:37.234Z,9.88
2023-08-13T00:42:40.374Z,5.90
2023-08-13T00:45:44.259Z,11.80
2023-08-13T00:48:48.192Z,7.40
2023-08-13T00:54:53.335Z,6.00
2023-08-13T00:57:55.930Z,9.67
2023-08-13T01:00:58.656Z,6.60
2023-08-13T01:04:01.188Z,8.93
2023-08-13T01:07:33.300Z,8.15
2023-08-13T01:10:38.463Z,23.70
2023-08-13T01:13:49.182Z,7.32
2023-08-13T01:16:54.001Z,9.88
2023-08-13T01:19:56.705Z,9.50
2023-08-13T01:22:59.342Z,10.02
2023-08-13T01:26:15.791Z,6.80
2023-08-13T01:29:30.691Z,9.27
2023-08-13T01:32:40.728Z,7.37
2023-08-13T01:35:44.675Z,9.70
2023-08-13T01:38:48.412Z,10.13
2023-08-13T01:41:56.051Z,7.37
2023-08-13T01:44:58.749Z,7.78
2023-08-13T01:48:01.235Z,11.63
2023-08-13T01:51:04.140Z,7.35
2023-08-13T01:54:06.941Z,9.38
2023-08-13T01:57:09.569Z,8.00
2023-08-13T02:00:13.703Z,7.75
2023-08-13T02:03:16.870Z,6.15
2023-08-13T02:06:19.365Z,6.57
2023-08-13T02:09:23.169Z,7.57
2023-08-13T02:12:25.604Z,5.53
2023-08-13T02:15:28.275Z,7.43
2023-08-13T02:18:32.907Z,6.93
2023-08-13T02:21:35.409Z,6.93
2023-08-13T02:24:38.185Z,6.97
2023-08-13T02:27:40.568Z,5.12
2023-08-13T02:30:43.528Z,6.33
2023-08-13T02:33:46.025Z,7.03
2023-08-13T02:36:48.748Z,5.80
2023-08-13T02:39:51.140Z,7.75
2023-08-13T02:42:53.846Z,6.70
2023-08-13T02:45:56.401Z,9.77
2023-08-13T02:48:59.052Z,7.12
2023-08-13T02:52:01.792Z,6.90
2023-08-13T02:55:06.891Z,14.10
2023-08-13T02:58:10.700Z,9.48
2023-08-13T03:01:14.275Z,7.12
2023-08-13T03:04:17.139Z,6.62
2023-08-13T03:07:20.053Z,6.60
2023-08-13T03:10:22.600Z,6.32
2023-08-13T03:13:25.253Z,6.47
2023-08-13T03:16:28.208Z,6.68
2023-08-13T03:19:30.963Z,8.80
2023-08-13T03:22:33.940Z,5.97
2023-08-13T03:25:36.544Z,5.47
2023-08-13T03:28:39.497Z,6.18
2023-08-13T03:34:46.805Z,6.32
2023-08-13T03:37:51.755Z,8.38
2023-08-13T03:40:55.700Z,7.10
2023-08-13T03:43:58.439Z,8.70
2023-08-13T03:47:00.849Z,8.52
2023-08-13T03:50:05.977Z,9.23
2023-08-13T03:53:08.793Z,8.77
2023-08-13T03:56:11.747Z,7.60
2023-08-13T03:59:14.295Z,10.15
2023-08-13T04:02:17.494Z,8.27
2023-08-13T04:05:21.067Z,6.60
2023-08-13T04:08:23.711Z,6.40
2023-08-13T04:11:26.682Z,6.40
2023-08-13T04:14:29.110Z,7.78
2023-08-13T04:17:31.985Z,6.17
2023-08-13T04:20:37.014Z,8.98
2023-08-13T04:23:39.680Z,9.23
2023-08-13T04:26:42.247Z,7.30
2023-08-13T04:29:45.406Z,7.25
2023-08-13T04:32:57.411Z,7.65
2023-08-13T04:36:00.419Z,9.38
2023-08-13T04:39:03.901Z,7.57
2023-08-13T04:42:07.061Z,7.62
2023-08-13T04:45:10.838Z,7.53
2023-08-13T04:48:19.916Z,6.45
2023-08-13T04:51:23.973Z,12.27
2023-08-13T04:54:26.892Z,9.40
2023-08-13T04:57:29.319Z,8.85
2023-08-13T05:00:32.733Z,5.47
2023-08-13T05:03:35.253Z,11.95
2023-08-13T05:06:38.029Z,11.80
2023-08-13T05:09:40.837Z,6.97
2023-08-13T05:12:44.601Z,5.85
2023-08-13T05:15:47.792Z,5.82
2023-08-13T05:18:50.585Z,8.10
2023-08-13T05:21:53.655Z,5.60
2023-08-13T05:24:56.445Z,6.43
2023-08-13T05:27:58.984Z,5.60
2023-08-13T05:31:04.348Z,6.30
2023-08-13T05:34:07.030Z,6.85
2023-08-13T05:37:09.712Z,5.80
2023-08-13T05:40:13.171Z,8.25
2023-08-13T05:43:15.858Z,5.97
2023-08-13T05:46:18.614Z,8.02
2023-08-13T05:49:21.463Z,10.63
2023-08-13T05:52:24.171Z,10.32
2023-08-13T05:55:26.934Z,29.02
2023-08-13T05:58:29.266Z,16.10
2023-08-13T06:01:32.144Z,13.25
2023-08-13T06:04:38.277Z,8.05
2023-08-13T06:07:41.006Z,9.38
2023-08-13T06:10:44.138Z,9.63
2023-08-13T06:13:46.645Z,6.43
2023-08-13T06:16:54.896Z,11.03
2023-08-13T06:20:04.608Z,7.55
2023-08-13T06:23:07.351Z,8.00
2023-08-13T06:26:09.784Z,7.30
2023-08-13T06:29:12.537Z,8.57
2023-08-13T06:32:15.306Z,6.68
2023-08-13T06:35:18.419Z,6.80
2023-08-13T06:38:20.887Z,6.40
2023-08-13T06:41:23.565Z,18.02
2023-08-13T06:44:27.334Z,10.35
2023-08-13T06:47:30.072Z,9.10
2023-08-13T06:50:34.139Z,9.32
2023-08-13T06:53:36.825Z,8.25
2023-08-13T06:56:39.326Z,7.40
2023-08-13T06:59:42.269Z,6.97
2023-08-13T07:02:45.335Z,10.17
2023-08-13T07:05:48.159Z,7.00
2023-08-13T07:08:53.487Z,6.37
2023-08-13T07:11:56.399Z,5.07
2023-08-13T07:14:58.985Z,6.20
2023-08-13T07:18:02.054Z,7.68
2023-08-13T07:21:07.356Z,4.53
2023-08-13T07:24:10.130Z,5.68
2023-08-13T07:27:12.616Z,6.97
2023-08-13T07:30:15.365Z,6.95
2023-08-13T07:33:17.792Z,7.80
2023-08-13T07:36:21.489Z,5.72
2023-08-13T07:42:27.230Z,6.15
2023-08-13T07:45:32.365Z,7.63
2023-08-13T07:48:35.249Z,5.18
2023-08-13T07:51:37.639Z,6.72
2023-08-13T07:54:40.549Z,5.12
2023-08-13T07:57:43.912Z,4.53
2023-08-13T08:00:46.709Z,5.20
2023-08-13T08:03:49.598Z,7.50
2023-08-13T08:06:52.089Z,6.45
2023-08-13T08:09:54.815Z,5.07
2023-08-13T08:12:57.224Z,7.10
2023-08-13T08:16:00.122Z,7.18
2023-08-13T08:19:02.630Z,4.47
2023-08-13T08:22:08.059Z,3.08
2023-08-13T08:25:12.368Z,3.10
2023-08-13T08:28:15.045Z,4.25
2023-08-13T08:31:17.479Z,2.78
2023-08-13T08:34:20.206Z,5.37
2023-08-13T08:37:22.804Z,3.30
2023-08-13T08:40:28.148Z,2.87
2023-08-13T08:43:35.085Z,2.83
2023-08-13T08:46:40.067Z,2.30
2023-08-13T08:49:46.195Z,7.80
2023-08-13T08:52:50.137Z,2.90
2023-08-13T08:55:53.942Z,5.25
2023-08-13T08:58:56.686Z,3.60
2023-08-13T09:02:01.890Z,5.95
2023-08-13T09:05:06.396Z,6.15
2023-08-13T09:08:17.210Z,4.05
2023-08-13T09:11:20.352Z,3.53
2023-08-13T09:14:24.238Z,3.45
2023-08-13T09:17:26.980Z,2.80
2023-08-13T09:20:29.527Z,4.57
2023-08-13T09:23:32.150Z,3.10
2023-08-13T09:26:34.584Z,5.20
2023-08-13T09:29:39.094Z,4.47
2023-08-13T09:32:42.842Z,5.87
2023-08-13T09:35:46.342Z,2.28
2023-08-13T09:38:48.861Z,4.43
2023-08-13T09:44:57.479Z,7.32
2023-08-13T09:48:05.411Z,4.57
2023-08-13T09:51:09.004Z,2.62
2023-08-13T09:54:30.848Z,3.47
2023-08-13T09:57:39.912Z,5.68
2023-08-13T10:00:43.234Z,2.58
2023-08-13T10:03:49.038Z,3.12
2023-08-13T10:06:52.251Z,3.55
2023-08-13T10:13:05.647Z,3.47
2023-08-13T10:16:09.841Z,3.53
2023-08-13T10:19:12.770Z,4.57
2023-08-13T10:22:16.983Z,3.72
2023-08-13T10:25:34.674Z,2.92
2023-08-13T10:28:37.549Z,2.50
2023-08-13T10:34:45.311Z,4.78
2023-08-13T10:37:57.746Z,6.00
2023-08-13T10:41:03.702Z,3.25
2023-08-13T10:44:29.864Z,2.62
2023-08-13T10:47:49.182Z,2.75
2023-08-13T10:50:55.646Z,3.30
2023-08-13T10:53:59.448Z,3.95
2023-08-13T10:57:03.326Z,4.32
2023-08-13T11:00:07.960Z,3.20
2023-08-13T11:03:23.138Z,5.57
2023-08-13T11:06:29.283Z,2.58
2023-08-13T11:09:32.196Z,3.85
2023-08-13T11:12:35.164Z,4.50
2023-08-13T11:18:40.641Z,3.30
2023-08-13T11:24:47.256Z,3.28
2023-08-13T11:30:54.404Z,3.13
2023-08-13T11:33:58.155Z,5.35
2023-08-13T11:37:01.206Z,3.10
2023-08-13T11:40:06.622Z,4.25
2023-08-13T11:43:13.762Z,2.75
2023-08-13T11:46:16.190Z,2.95
2023-08-13T11:52:23.320Z,3.22
2023-08-13T11:55:26.957Z,3.85
2023-08-13T11:58:30.733Z,3.35
2023-08-13T12:01:37.469Z,4.03
2023-08-13T12:04:40.200Z,3.12
2023-08-13T12:07:42.775Z,4.10
2023-08-13T12:10:45.853Z,3.83
2023-08-13T12:16:50.692Z,3.10
2023-08-13T12:19:53.176Z,4.68
2023-08-13T12:22:56.612Z,2.95
2023-08-13T12:26:02.661Z,8.18
2023-08-13T12:29:05.652Z,3.85
2023-08-13T12:35:10.541Z,4.90
2023-08-13T12:38:12.924Z,3.62
2023-08-13T12:41:19.043Z,4.28
2023-08-13T12:44:26.618Z,4.55
2023-08-13T12:47:29.310Z,2.97
2023-08-13T12:50:31.712Z,2.53
2023-08-13T12:53:35.610Z,3.17
2023-08-13T12:56:38.076Z,3.80
2023-08-13T12:59:40.754Z,3.03
2023-08-13T13:02:43.207Z,2.67
2023-08-13T13:05:48.385Z,2.80
2023-08-13T13:08:50.817Z,3.80
2023-08-13T13:14:56.719Z,3.75
2023-08-13T13:17:59.787Z,3.42
2023-08-13T13:24:05.316Z,4.13
2023-08-13T13:27:07.718Z,3.67
2023-08-13T13:30:11.692Z,4.90
2023-08-13T13:33:14.133Z,2.55
2023-08-13T13:36:16.784Z,5.03
2023-08-13T13:39:19.251Z,5.12
2023-08-13T13:42:22.064Z,2.55
2023-08-13T13:45:24.654Z,2.35
2023-08-13T13:51:30.965Z,3.17
2023-08-13T13:54:34.532Z,4.53
2023-08-13T13:57:37.306Z,3.12
2023-08-13T14:00:39.987Z,2.78
2023-08-13T14:03:43.255Z,4.75
2023-08-13T14:06:45.972Z,2.60
2023-08-13T14:12:51.331Z,3.30
2023-08-13T14:15:54.888Z,3.35
2023-08-13T14:18:57.346Z,5.30
2023-08-13T14:22:00.044Z,4.68
2023-08-13T14:25:05.004Z,4.20
2023-08-13T14:28:09.367Z,2.67
2023-08-13T14:31:11.866Z,3.30
2023-08-13T14:37:19.730Z,3.75
2023-08-13T14:40:23.274Z,3.10
2023-08-13T14:43:28.065Z,3.12
2023-08-13T14:46:31.593Z,4.15
2023-08-13T14:49:34.033Z,3.60
2023-08-13T14:52:38.958Z,3.90
2023-08-13T14:55:41.681Z,3.72
2023-08-13T14:58:44.604Z,3.97
2023-08-13T15:01:49.674Z,4.22
2023-08-13T15:04:52.329Z,3.90
2023-08-13T15:07:54.774Z,2.30
2023-08-13T15:10:57.522Z,4.10
2023-08-13T15:13:59.918Z,3.20
2023-08-13T15:17:02.959Z,2.80
2023-08-13T15:20:07.209Z,2.53
2023-08-13T15:23:09.943Z,4.60
2023-08-13T15:26:12.810Z,4.68
2023-08-13T15:29:15.560Z,5.18
2023-08-13T15:32:18.237Z,3.05
2023-08-13T15:38:25.368Z,2.80
2023-08-13T15:41:28.035Z,4.35
2023-08-13T15:44:30.496Z,4.65
2023-08-13T15:47:33.234Z,4.03
2023-08-13T15:50:35.838Z,6.75
2023-08-13T15:53:40.212Z,3.12
2023-08-13T15:56:42.637Z,2.95
2023-08-13T15:59:45.454Z,3.15
2023-08-13T16:02:48.168Z,4.55
2023-08-13T16:05:54.514Z,2.78
2023-08-13T16:08:56.915Z,4.25
2023-08-13T16:11:59.626Z,4.68
2023-08-13T16:15:10.403Z,2.45
2023-08-13T16:18:13.230Z,5.93
2023-08-13T16:21:15.695Z,5.37
2023-08-13T16:24:18.388Z,3.65
2023-08-13T16:27:20.775Z,4.70
2023-08-13T16:30:23.789Z,4.93
2023-08-13T16:33:26.556Z,3.53
2023-08-13T16:36:29.371Z,3.53
2023-08-13T16:39:32.036Z,3.87
2023-08-13T16:42:41.973Z,4.22
2023-08-13T16:45:57.485Z,3.12
2023-08-13T16:52:02.410Z,4.12
2023-08-13T16:55:06.933Z,3.70
2023-08-13T16:58:09.366Z,3.58
2023-08-13T17:01:12.091Z,4.90
2023-08-13T17:04:14.631Z,5.43
2023-08-13T17:07:17.560Z,4.78
2023-08-13T17:10:20.438Z,4.43
2023-08-13T17:13:23.083Z,4.65
2023-08-13T17:16:25.615Z,3.80
2023-08-13T17:19:28.581Z,5.53
2023-08-13T17:22:31.155Z,4.62
2023-08-13T17:25:34.039Z,6.62
2023-08-13T17:28:36.511Z,4.72
2023-08-13T17:31:39.291Z,3.92
2023-08-13T17:34:43.091Z,5.87
2023-08-13T17:37:49.819Z,4.10
2023-08-13T17:40:52.468Z,8.63
2023-08-13T17:43:55.173Z,4.40
2023-08-13T17:46:57.802Z,4.10
2023-08-13T17:50:00.533Z,5.75
2023-08-13T17:53:03.186Z,8.27
2023-08-13T17:56:06.037Z,3.87
2023-08-13T17:59:08.433Z,7.50
2023-08-13T18:02:11.172Z,7.90
2023-08-13T18:05:13.915Z,8.95
2023-08-13T18:08:16.563Z,7.60
2023-08-13T18:11:19.412Z,8.25
2023-08-13T18:14:24.958Z,6.90
2023-08-13T18:17:46.100Z,5.15
2023-08-13T18:20:49.078Z,6.85
2023-08-13T18:23:54.543Z,6.43
2023-08-13T18:33:26.144Z,7.93
2023-08-13T18:36:30.010Z,11.60
2023-08-13T18:39:35.013Z,7.87
2023-08-13T18:42:38.697Z,9.30
2023-08-13T18:45:41.487Z,8.85
2023-08-13T18:48:44.717Z,7.80
2023-08-13T18:51:50.605Z,7.22
2023-08-13T18:54:53.067Z,7.12
2023-08-13T18:57:55.952Z,8.77
2023-08-13T19:00:58.470Z,9.88
2023-08-13T19:04:01.202Z,7.40
2023-08-13T19:07:03.637Z,7.70
2023-08-13T19:10:06.810Z,8.55
2023-08-13T19:13:09.419Z,8.27
2023-08-13T19:16:12.296Z,7.57
2023-08-13T19:19:15.571Z,11.12
2023-08-13T19:22:18.623Z,8.02
2023-08-13T19:25:21.272Z,9.13
2023-08-13T19:28:24.160Z,7.43
2023-08-13T19:31:26.588Z,7.60
2023-08-13T19:34:29.319Z,7.53
2023-08-13T19:37:32.044Z,9.57
2023-08-13T19:40:41.404Z,6.60
2023-08-13T19:43:43.918Z,10.18
2023-08-13T19:46:47.423Z,6.85
2023-08-13T19:49:49.826Z,9.55
2023-08-13T19:52:52.621Z,9.75
2023-08-13T19:55:55.034Z,8.73
2023-08-13T19:58:57.728Z,9.95
2023-08-13T20:02:00.228Z,11.18
2023-08-13T20:05:03.009Z,11.95
2023-08-13T20:08:05.851Z,6.82
2023-08-13T20:11:08.520Z,8.30
2023-08-13T20:14:11.085Z,11.10
2023-08-13T20:17:14.398Z,11.27
2023-08-13T20:20:20.462Z,14.32
2023-08-13T20:23:26.587Z,13.07
2023-08-13T20:26:29.023Z,10.88
2023-08-13T20:29:31.749Z,13.62
2023-08-13T20:32:34.280Z,14.20
2023-08-13T20:35:37.580Z,10.02
2023-08-13T20:38:40.053Z,15.82
2023-08-13T20:41:42.748Z,14.65
2023-08-13T20:44:45.139Z,8.32
2023-08-13T20:47:47.900Z,7.37
2023-08-13T20:50:50.390Z,10.43
2023-08-13T20:53:53.124Z,6.40
2023-08-13T20:56:55.574Z,6.68
2023-08-13T20:59:58.439Z,9.13
2023-08-13T21:03:02.630Z,6.97
2023-08-13T21:06:05.429Z,9.45
2023-08-13T21:09:07.909Z,10.40
2023-08-13T21:12:10.664Z,7.35
2023-08-13T21:15:13.022Z,8.63
2023-08-13T21:18:15.739Z,6.62
2023-08-13T21:21:18.126Z,6.65
2023-08-13T21:24:20.818Z,7.18
2023-08-13T21:27:23.265Z,8.05
2023-08-13T21:30:26.752Z,5.27
2023-08-13T21:33:29.311Z,7.20
2023-08-13T21:36:32.065Z,9.75
2023-08-13T21:39:34.710Z,7.17
2023-08-13T21:42:37.457Z,7.47
2023-08-13T21:45:39.853Z,9.88
2023-08-13T21:48:42.540Z,6.83
2023-08-13T21:51:47.284Z,7.60
2023-08-13T21:54:50.017Z,5.90
2023-08-13T21:57:52.375Z,11.18
2023-08-13T22:00:56.142Z,7.28
2023-08-13T22:03:58.889Z,9.20
2023-08-13T22:07:01.504Z,9.37
2023-08-13T22:10:04.771Z,9.07
2023-08-13T22:13:07.440Z,9.82
2023-08-13T22:16:10.102Z,6.37
2023-08-13T22:19:12.643Z,12.05
2023-08-13T22:22:18.723Z,6.72
2023-08-13T22:25:21.349Z,7.47
2023-08-13T22:28:24.007Z,8.38
2023-08-13T22:31:29.299Z,8.75
2023-08-13T22:34:32.129Z,8.00
2023-08-13T22:37:35.273Z,7.80
2023-08-13T22:43:40.145Z,6.28
2023-08-13T22:46:42.795Z,6.53
2023-08-13T22:49:45.122Z,6.50
2023-08-13T22:52:47.775Z,5.63
2023-08-13T22:55:50.135Z,10.90
2023-08-13T22:58:52.871Z,10.87
2023-08-13T23:01:55.420Z,9.80
2023-08-13T23:04:59.718Z,10.57
2023-08-13T23:08:03.650Z,6.60
2023-08-13T23:11:06.317Z,9.75
2023-08-13T23:14:08.729Z,11.95
2023-08-13T23:17:11.458Z,9.07
2023-08-13T23:20:13.894Z,6.60
2023-08-13T23:23:16.650Z,8.68
2023-08-13T23:26:19.042Z,8.05
2023-08-13T23:29:22.011Z,8.27
2023-08-13T23:32:24.812Z,9.37
2023-08-13T23:35:27.479Z,6.95
2023-08-13T23:38:30.789Z,7.97
2023-08-13T23:44:38.922Z,8.68
2023-08-13T23:47:41.624Z,5.12
2023-08-13T23:53:52.980Z,6.15
2023-08-13T23:56:55.364Z,8.70
2023-08-13T23:59:58.048Z,6.00
